sensor_id;sensor_type;location;lat;lon;timestamp;temperature;humidity
11597;DHT22;5854;48.072;16.286;2023-02-28T00:01:07;2.10;55.70
11597;DHT22;5854;48.072;16.286;2023-02-28T00:03:49;2.00;58.40
11597;DHT22;5854;48.072;16.286;2023-02-28T00:06:19;2.00;57.60
11597;DHT22;5854;48.072;16.286;2023-02-28T00:08:58;2.10;56.70
11597;DHT22;5854;48.072;16.286;2023-02-28T00:11:33;2.20;56.50
11597;DHT22;5854;48.072;16.286;2023-02-28T00:14:02;2.10;54.20
11597;DHT22;5854;48.072;16.286;2023-02-28T00:16:29;2.00;55.30
11597;DHT22;5854;48.072;16.286;2023-02-28T00:18:57;2.00;55.90
11597;DHT22;5854;48.072;16.286;2023-02-28T00:21:24;2.10;57.00
11597;DHT22;5854;48.072;16.286;2023-02-28T00:23:51;2.00;55.20
11597;DHT22;5854;48.072;16.286;2023-02-28T00:26:18;2.00;55.50
11597;DHT22;5854;48.072;16.286;2023-02-28T00:28:45;2.00;54.30
11597;DHT22;5854;48.072;16.286;2023-02-28T00:31:15;2.00;57.00
11597;DHT22;5854;48.072;16.286;2023-02-28T00:33:42;2.10;58.60
11597;DHT22;5854;48.072;16.286;2023-02-28T00:36:10;2.10;58.60
11597;DHT22;5854;48.072;16.286;2023-02-28T00:38:38;2.10;57.10
11597;DHT22;5854;48.072;16.286;2023-02-28T00:41:06;2.00;53.90
11597;DHT22;5854;48.072;16.286;2023-02-28T00:43:35;2.00;55.60
11597;DHT22;5854;48.072;16.286;2023-02-28T00:46:04;1.90;55.20
11597;DHT22;5854;48.072;16.286;2023-02-28T00:48:33;1.90;54.50
11597;DHT22;5854;48.072;16.286;2023-02-28T00:51:00;2.00;57.90
11597;DHT22;5854;48.072;16.286;2023-02-28T00:53:28;2.00;58.10
11597;DHT22;5854;48.072;16.286;2023-02-28T00:55:56;2.00;56.70
11597;DHT22;5854;48.072;16.286;2023-02-28T00:58:24;2.00;56.20
11597;DHT22;5854;48.072;16.286;2023-02-28T01:00:51;1.90;54.60
11597;DHT22;5854;48.072;16.286;2023-02-28T01:03:20;1.90;55.40
11597;DHT22;5854;48.072;16.286;2023-02-28T01:05:49;1.80;55.40
11597;DHT22;5854;48.072;16.286;2023-02-28T01:08:18;1.80;56.60
11597;DHT22;5854;48.072;16.286;2023-02-28T01:10:46;1.70;55.50
11597;DHT22;5854;48.072;16.286;2023-02-28T01:13:13;1.60;55.50
11597;DHT22;5854;48.072;16.286;2023-02-28T01:15:44;1.70;58.00
11597;DHT22;5854;48.072;16.286;2023-02-28T01:18:13;1.70;57.20
11597;DHT22;5854;48.072;16.286;2023-02-28T01:20:40;1.60;57.10
11597;DHT22;5854;48.072;16.286;2023-02-28T01:23:08;1.60;57.70
11597;DHT22;5854;48.072;16.286;2023-02-28T01:25:36;1.70;57.90
11597;DHT22;5854;48.072;16.286;2023-02-28T01:28:03;1.70;57.40
11597;DHT22;5854;48.072;16.286;2023-02-28T01:30:32;1.80;57.30
11597;DHT22;5854;48.072;16.286;2023-02-28T01:32:59;1.80;58.00
11597;DHT22;5854;48.072;16.286;2023-02-28T01:35:27;1.90;56.50
11597;DHT22;5854;48.072;16.286;2023-02-28T01:37:54;1.90;56.30
11597;DHT22;5854;48.072;16.286;2023-02-28T01:40:22;1.90;58.20
11597;DHT22;5854;48.072;16.286;2023-02-28T01:42:50;1.90;58.90
11597;DHT22;5854;48.072;16.286;2023-02-28T01:45:22;2.00;59.20
11597;DHT22;5854;48.072;16.286;2023-02-28T01:47:52;2.00;57.80
11597;DHT22;5854;48.072;16.286;2023-02-28T01:50:26;2.00;57.50
11597;DHT22;5854;48.072;16.286;2023-02-28T01:52:57;2.10;58.60
11597;DHT22;5854;48.072;16.286;2023-02-28T01:55:28;2.10;56.80
11597;DHT22;5854;48.072;16.286;2023-02-28T01:57:58;2.00;54.90
11597;DHT22;5854;48.072;16.286;2023-02-28T02:00:28;1.90;56.00
11597;DHT22;5854;48.072;16.286;2023-02-28T02:02:59;1.90;56.60
11597;DHT22;5854;48.072;16.286;2023-02-28T02:05:29;1.90;56.10
11597;DHT22;5854;48.072;16.286;2023-02-28T02:08:01;1.90;56.20
11597;DHT22;5854;48.072;16.286;2023-02-28T02:10:34;1.90;58.00
11597;DHT22;5854;48.072;16.286;2023-02-28T02:13:18;2.00;56.80
11597;DHT22;5854;48.072;16.286;2023-02-28T02:16:00;1.90;55.90
11597;DHT22;5854;48.072;16.286;2023-02-28T02:18:36;1.80;56.10
11597;DHT22;5854;48.072;16.286;2023-02-28T02:21:26;1.80;55.80
11597;DHT22;5854;48.072;16.286;2023-02-28T02:24:45;1.80;56.90
11597;DHT22;5854;48.072;16.286;2023-02-28T02:27:45;1.80;55.90
11597;DHT22;5854;48.072;16.286;2023-02-28T02:30:51;1.80;58.60
11597;DHT22;5854;48.072;16.286;2023-02-28T02:33:59;1.90;58.00
11597;DHT22;5854;48.072;16.286;2023-02-28T02:36:37;1.80;56.40
11597;DHT22;5854;48.072;16.286;2023-02-28T02:39:09;1.80;56.20
11597;DHT22;5854;48.072;16.286;2023-02-28T02:41:47;1.80;56.30
11597;DHT22;5854;48.072;16.286;2023-02-28T02:44:20;1.70;55.80
11597;DHT22;5854;48.072;16.286;2023-02-28T02:46:53;1.70;56.80
11597;DHT22;5854;48.072;16.286;2023-02-28T02:49:30;1.80;58.90
11597;DHT22;5854;48.072;16.286;2023-02-28T02:52:03;1.80;58.50
11597;DHT22;5854;48.072;16.286;2023-02-28T02:54:34;1.80;58.20
11597;DHT22;5854;48.072;16.286;2023-02-28T02:57:06;1.80;57.60
11597;DHT22;5854;48.072;16.286;2023-02-28T02:59:36;1.70;58.00
11597;DHT22;5854;48.072;16.286;2023-02-28T03:02:07;1.70;57.70
11597;DHT22;5854;48.072;16.286;2023-02-28T03:04:41;1.70;57.10
11597;DHT22;5854;48.072;16.286;2023-02-28T03:07:10;1.70;58.40
11597;DHT22;5854;48.072;16.286;2023-02-28T03:09:37;1.70;56.70
11597;DHT22;5854;48.072;16.286;2023-02-28T03:12:08;1.60;56.00
11597;DHT22;5854;48.072;16.286;2023-02-28T03:14:54;1.50;56.20
11597;DHT22;5854;48.072;16.286;2023-02-28T03:17:31;1.60;59.40
11597;DHT22;5854;48.072;16.286;2023-02-28T03:20:15;1.60;57.10
11597;DHT22;5854;48.072;16.286;2023-02-28T03:22:53;1.50;56.30
11597;DHT22;5854;48.072;16.286;2023-02-28T03:25:33;1.50;56.50
11597;DHT22;5854;48.072;16.286;2023-02-28T03:28:09;1.40;56.90
11597;DHT22;5854;48.072;16.286;2023-02-28T03:30:47;1.50;58.10
11597;DHT22;5854;48.072;16.286;2023-02-28T03:33:21;1.40;57.40
11597;DHT22;5854;48.072;16.286;2023-02-28T03:35:54;1.50;59.50
11597;DHT22;5854;48.072;16.286;2023-02-28T03:38:27;1.50;57.10
11597;DHT22;5854;48.072;16.286;2023-02-28T03:41:01;1.40;55.50
11597;DHT22;5854;48.072;16.286;2023-02-28T03:43:35;1.30;56.90
11597;DHT22;5854;48.072;16.286;2023-02-28T03:46:08;1.30;59.20
11597;DHT22;5854;48.072;16.286;2023-02-28T03:48:40;1.40;57.70
11597;DHT22;5854;48.072;16.286;2023-02-28T03:51:14;1.30;57.20
11597;DHT22;5854;48.072;16.286;2023-02-28T03:53:45;1.40;58.90
11597;DHT22;5854;48.072;16.286;2023-02-28T03:56:17;1.40;58.60
11597;DHT22;5854;48.072;16.286;2023-02-28T03:58:51;1.40;58.30
11597;DHT22;5854;48.072;16.286;2023-02-28T04:01:25;1.40;59.10
11597;DHT22;5854;48.072;16.286;2023-02-28T04:03:53;1.40;57.80
11597;DHT22;5854;48.072;16.286;2023-02-28T04:06:23;1.40;59.30
11597;DHT22;5854;48.072;16.286;2023-02-28T04:08:50;1.30;55.70
11597;DHT22;5854;48.072;16.286;2023-02-28T04:11:23;1.30;58.30
11597;DHT22;5854;48.072;16.286;2023-02-28T04:13:53;1.30;57.20
11597;DHT22;5854;48.072;16.286;2023-02-28T04:16:20;1.30;58.90
11597;DHT22;5854;48.072;16.286;2023-02-28T04:18:48;1.30;58.70
11597;DHT22;5854;48.072;16.286;2023-02-28T04:21:15;1.30;58.80
11597;DHT22;5854;48.072;16.286;2023-02-28T04:23:47;1.30;58.40
11597;DHT22;5854;48.072;16.286;2023-02-28T04:26:14;1.30;58.00
11597;DHT22;5854;48.072;16.286;2023-02-28T04:28:41;1.30;59.10
11597;DHT22;5854;48.072;16.286;2023-02-28T04:31:09;1.20;57.20
11597;DHT22;5854;48.072;16.286;2023-02-28T04:33:36;1.20;57.80
11597;DHT22;5854;48.072;16.286;2023-02-28T04:36:06;1.20;58.20
11597;DHT22;5854;48.072;16.286;2023-02-28T04:38:35;1.20;58.40
11597;DHT22;5854;48.072;16.286;2023-02-28T04:41:05;1.30;59.60
11597;DHT22;5854;48.072;16.286;2023-02-28T04:43:32;1.30;59.10
11597;DHT22;5854;48.072;16.286;2023-02-28T04:46:02;1.30;57.90
11597;DHT22;5854;48.072;16.286;2023-02-28T04:48:32;1.20;58.30
11597;DHT22;5854;48.072;16.286;2023-02-28T04:51:01;1.20;58.10
11597;DHT22;5854;48.072;16.286;2023-02-28T04:53:28;1.20;60.00
11597;DHT22;5854;48.072;16.286;2023-02-28T04:55:56;1.30;60.20
11597;DHT22;5854;48.072;16.286;2023-02-28T04:58:24;1.40;59.80
11597;DHT22;5854;48.072;16.286;2023-02-28T05:00:54;1.30;59.00
11597;DHT22;5854;48.072;16.286;2023-02-28T05:03:28;1.30;58.30
11597;DHT22;5854;48.072;16.286;2023-02-28T05:05:55;1.30;59.10
11597;DHT22;5854;48.072;16.286;2023-02-28T05:08:22;1.30;59.60
11597;DHT22;5854;48.072;16.286;2023-02-28T05:10:49;1.30;59.70
11597;DHT22;5854;48.072;16.286;2023-02-28T05:13:16;1.30;58.10
11597;DHT22;5854;48.072;16.286;2023-02-28T05:15:45;1.20;59.40
11597;DHT22;5854;48.072;16.286;2023-02-28T05:18:12;1.20;58.10
11597;DHT22;5854;48.072;16.286;2023-02-28T05:20:39;1.20;58.10
11597;DHT22;5854;48.072;16.286;2023-02-28T05:23:06;1.20;59.40
11597;DHT22;5854;48.072;16.286;2023-02-28T05:25:34;1.20;60.80
11597;DHT22;5854;48.072;16.286;2023-02-28T05:28:01;1.20;59.30
11597;DHT22;5854;48.072;16.286;2023-02-28T05:30:29;1.20;59.70
11597;DHT22;5854;48.072;16.286;2023-02-28T05:32:58;1.20;59.30
11597;DHT22;5854;48.072;16.286;2023-02-28T05:35:26;1.20;58.30
11597;DHT22;5854;48.072;16.286;2023-02-28T05:37:53;1.10;58.10
11597;DHT22;5854;48.072;16.286;2023-02-28T05:40:20;1.10;59.70
11597;DHT22;5854;48.072;16.286;2023-02-28T05:42:56;1.10;58.60
11597;DHT22;5854;48.072;16.286;2023-02-28T05:45:23;1.10;59.70
11597;DHT22;5854;48.072;16.286;2023-02-28T05:47:55;1.00;58.10
11597;DHT22;5854;48.072;16.286;2023-02-28T05:50:26;1.00;59.60
11597;DHT22;5854;48.072;16.286;2023-02-28T05:52:53;1.00;60.40
11597;DHT22;5854;48.072;16.286;2023-02-28T05:55:21;1.00;58.40
11597;DHT22;5854;48.072;16.286;2023-02-28T05:57:48;1.00;59.90
11597;DHT22;5854;48.072;16.286;2023-02-28T06:07:44;1.10;59.50
11597;DHT22;5854;48.072;16.286;2023-02-28T06:10:39;1.30;57.90
11597;DHT22;5854;48.072;16.286;2023-02-28T06:13:10;1.30;56.60
11597;DHT22;5854;48.072;16.286;2023-02-28T06:15:40;1.30;57.60
11597;DHT22;5854;48.072;16.286;2023-02-28T06:18:26;1.30;57.10
11597;DHT22;5854;48.072;16.286;2023-02-28T06:20:55;1.40;57.60
11597;DHT22;5854;48.072;16.286;2023-02-28T06:23:22;1.40;58.30
11597;DHT22;5854;48.072;16.286;2023-02-28T06:25:49;1.50;62.30
11597;DHT22;5854;48.072;16.286;2023-02-28T06:28:16;1.30;58.70
11597;DHT22;5854;48.072;16.286;2023-02-28T06:30:43;1.30;56.80
11597;DHT22;5854;48.072;16.286;2023-02-28T06:33:10;1.20;59.00
11597;DHT22;5854;48.072;16.286;2023-02-28T06:35:37;1.30;60.80
11597;DHT22;5854;48.072;16.286;2023-02-28T06:38:06;1.40;59.70
11597;DHT22;5854;48.072;16.286;2023-02-28T06:40:33;1.40;59.80
11597;DHT22;5854;48.072;16.286;2023-02-28T06:43:01;1.40;59.40
11597;DHT22;5854;48.072;16.286;2023-02-28T06:45:28;1.50;58.50
11597;DHT22;5854;48.072;16.286;2023-02-28T06:47:55;1.50;59.00
11597;DHT22;5854;48.072;16.286;2023-02-28T06:50:23;1.70;58.50
11597;DHT22;5854;48.072;16.286;2023-02-28T06:52:50;1.80;58.30
11597;DHT22;5854;48.072;16.286;2023-02-28T06:55:20;1.70;57.10
11597;DHT22;5854;48.072;16.286;2023-02-28T06:57:47;1.60;57.80
11597;DHT22;5854;48.072;16.286;2023-02-28T07:00:16;1.50;58.30
11597;DHT22;5854;48.072;16.286;2023-02-28T07:02:43;1.20;56.90
11597;DHT22;5854;48.072;16.286;2023-02-28T07:05:11;1.20;59.50
11597;DHT22;5854;48.072;16.286;2023-02-28T07:07:38;1.40;59.70
11597;DHT22;5854;48.072;16.286;2023-02-28T07:10:10;1.50;59.20
11597;DHT22;5854;48.072;16.286;2023-02-28T07:12:40;1.60;58.70
11597;DHT22;5854;48.072;16.286;2023-02-28T07:15:08;1.70;58.00
11597;DHT22;5854;48.072;16.286;2023-02-28T07:17:36;1.80;58.40
11597;DHT22;5854;48.072;16.286;2023-02-28T07:20:03;1.80;57.40
11597;DHT22;5854;48.072;16.286;2023-02-28T07:22:31;1.80;57.30
11597;DHT22;5854;48.072;16.286;2023-02-28T07:24:58;1.80;56.80
11597;DHT22;5854;48.072;16.286;2023-02-28T07:27:25;1.80;58.00
11597;DHT22;5854;48.072;16.286;2023-02-28T07:29:53;1.90;57.10
11597;DHT22;5854;48.072;16.286;2023-02-28T07:32:21;1.90;56.90
11597;DHT22;5854;48.072;16.286;2023-02-28T07:34:48;2.00;56.70
11597;DHT22;5854;48.072;16.286;2023-02-28T07:37:15;1.90;56.90
11597;DHT22;5854;48.072;16.286;2023-02-28T07:39:42;2.00;57.60
11597;DHT22;5854;48.072;16.286;2023-02-28T07:42:10;2.00;56.20
11597;DHT22;5854;48.072;16.286;2023-02-28T07:44:38;2.10;56.90
11597;DHT22;5854;48.072;16.286;2023-02-28T07:47:07;1.80;56.10
11597;DHT22;5854;48.072;16.286;2023-02-28T07:49:35;1.90;56.80
11597;DHT22;5854;48.072;16.286;2023-02-28T07:52:02;1.80;57.60
11597;DHT22;5854;48.072;16.286;2023-02-28T07:54:30;1.90;56.60
11597;DHT22;5854;48.072;16.286;2023-02-28T07:56:57;2.00;57.00
11597;DHT22;5854;48.072;16.286;2023-02-28T07:59:24;1.90;56.40
11597;DHT22;5854;48.072;16.286;2023-02-28T08:01:51;1.90;56.70
11597;DHT22;5854;48.072;16.286;2023-02-28T08:04:20;2.00;56.60
11597;DHT22;5854;48.072;16.286;2023-02-28T08:06:47;2.00;55.80
11597;DHT22;5854;48.072;16.286;2023-02-28T08:09:14;2.20;56.20
11597;DHT22;5854;48.072;16.286;2023-02-28T08:11:41;2.40;56.40
11597;DHT22;5854;48.072;16.286;2023-02-28T08:14:08;2.40;55.50
11597;DHT22;5854;48.072;16.286;2023-02-28T08:16:35;2.40;53.60
11597;DHT22;5854;48.072;16.286;2023-02-28T08:19:04;2.40;54.10
11597;DHT22;5854;48.072;16.286;2023-02-28T08:21:32;2.30;54.90
11597;DHT22;5854;48.072;16.286;2023-02-28T08:23:59;2.60;54.70
11597;DHT22;5854;48.072;16.286;2023-02-28T08:26:34;2.70;54.30
11597;DHT22;5854;48.072;16.286;2023-02-28T08:29:01;2.70;52.60
11597;DHT22;5854;48.072;16.286;2023-02-28T08:31:28;2.80;52.50
11597;DHT22;5854;48.072;16.286;2023-02-28T08:33:55;2.80;51.90
11597;DHT22;5854;48.072;16.286;2023-02-28T08:36:24;3.00;52.20
11597;DHT22;5854;48.072;16.286;2023-02-28T08:38:56;3.00;51.30
11597;DHT22;5854;48.072;16.286;2023-02-28T08:41:25;3.10;52.60
11597;DHT22;5854;48.072;16.286;2023-02-28T08:43:52;3.10;50.90
11597;DHT22;5854;48.072;16.286;2023-02-28T08:46:20;3.10;50.70
11597;DHT22;5854;48.072;16.286;2023-02-28T08:48:50;3.20;50.40
11597;DHT22;5854;48.072;16.286;2023-02-28T08:51:18;3.30;49.90
11597;DHT22;5854;48.072;16.286;2023-02-28T08:53:52;3.30;49.80
11597;DHT22;5854;48.072;16.286;2023-02-28T08:56:21;3.00;48.90
11597;DHT22;5854;48.072;16.286;2023-02-28T08:58:49;2.90;51.00
11597;DHT22;5854;48.072;16.286;2023-02-28T09:01:18;2.90;50.40
11597;DHT22;5854;48.072;16.286;2023-02-28T09:03:48;2.90;50.70
11597;DHT22;5854;48.072;16.286;2023-02-28T09:06:18;3.10;52.80
11597;DHT22;5854;48.072;16.286;2023-02-28T09:08:46;3.20;50.80
11597;DHT22;5854;48.072;16.286;2023-02-28T09:11:13;3.10;50.80
11597;DHT22;5854;48.072;16.286;2023-02-28T09:13:42;3.20;51.00
11597;DHT22;5854;48.072;16.286;2023-02-28T09:16:12;3.40;49.60
11597;DHT22;5854;48.072;16.286;2023-02-28T09:18:40;3.30;50.00
11597;DHT22;5854;48.072;16.286;2023-02-28T09:21:09;3.30;50.90
11597;DHT22;5854;48.072;16.286;2023-02-28T09:23:39;3.40;49.90
11597;DHT22;5854;48.072;16.286;2023-02-28T09:26:08;3.40;49.40
11597;DHT22;5854;48.072;16.286;2023-02-28T09:28:41;3.60;49.70
11597;DHT22;5854;48.072;16.286;2023-02-28T09:31:15;3.80;49.50
11597;DHT22;5854;48.072;16.286;2023-02-28T09:33:46;3.90;49.20
11597;DHT22;5854;48.072;16.286;2023-02-28T09:36:13;3.60;49.10
11597;DHT22;5854;48.072;16.286;2023-02-28T09:38:40;3.40;49.20
11597;DHT22;5854;48.072;16.286;2023-02-28T09:41:12;3.50;51.20
11597;DHT22;5854;48.072;16.286;2023-02-28T09:43:45;3.50;50.70
11597;DHT22;5854;48.072;16.286;2023-02-28T09:46:28;3.70;50.60
11597;DHT22;5854;48.072;16.286;2023-02-28T09:49:05;3.80;50.20
11597;DHT22;5854;48.072;16.286;2023-02-28T09:51:42;3.80;50.00
11597;DHT22;5854;48.072;16.286;2023-02-28T09:54:15;3.80;50.10
11597;DHT22;5854;48.072;16.286;2023-02-28T09:56:47;3.70;50.30
11597;DHT22;5854;48.072;16.286;2023-02-28T09:59:31;3.70;49.80
11597;DHT22;5854;48.072;16.286;2023-02-28T10:02:21;3.70;50.60
11597;DHT22;5854;48.072;16.286;2023-02-28T10:05:04;3.70;50.10
11597;DHT22;5854;48.072;16.286;2023-02-28T10:07:53;3.80;51.80
11597;DHT22;5854;48.072;16.286;2023-02-28T10:10:28;3.90;50.00
11597;DHT22;5854;48.072;16.286;2023-02-28T10:13:01;3.90;49.30
11597;DHT22;5854;48.072;16.286;2023-02-28T10:15:32;3.90;51.10
11597;DHT22;5854;48.072;16.286;2023-02-28T10:18:04;3.90;50.30
11597;DHT22;5854;48.072;16.286;2023-02-28T10:20:34;3.90;50.80
11597;DHT22;5854;48.072;16.286;2023-02-28T10:23:12;4.00;49.70
11597;DHT22;5854;48.072;16.286;2023-02-28T10:25:43;4.20;50.80
11597;DHT22;5854;48.072;16.286;2023-02-28T10:28:14;4.30;49.70
11597;DHT22;5854;48.072;16.286;2023-02-28T10:30:47;4.40;50.20
11597;DHT22;5854;48.072;16.286;2023-02-28T10:33:17;4.50;49.50
11597;DHT22;5854;48.072;16.286;2023-02-28T10:35:46;4.50;49.10
11597;DHT22;5854;48.072;16.286;2023-02-28T10:38:20;4.50;48.90
11597;DHT22;5854;48.072;16.286;2023-02-28T10:40:48;4.40;49.60
11597;DHT22;5854;48.072;16.286;2023-02-28T10:43:21;4.40;50.70
11597;DHT22;5854;48.072;16.286;2023-02-28T10:45:57;4.30;49.90
11597;DHT22;5854;48.072;16.286;2023-02-28T10:48:30;4.20;47.70
11597;DHT22;5854;48.072;16.286;2023-02-28T10:50:59;4.10;48.30
11597;DHT22;5854;48.072;16.286;2023-02-28T10:53:32;4.00;50.50
11597;DHT22;5854;48.072;16.286;2023-02-28T10:56:02;4.20;49.50
11597;DHT22;5854;48.072;16.286;2023-02-28T10:58:46;4.30;50.20
11597;DHT22;5854;48.072;16.286;2023-02-28T11:01:18;4.50;48.60
11597;DHT22;5854;48.072;16.286;2023-02-28T11:03:50;4.40;48.50
11597;DHT22;5854;48.072;16.286;2023-02-28T11:06:20;4.30;47.10
11597;DHT22;5854;48.072;16.286;2023-02-28T11:08:51;4.40;48.20
11597;DHT22;5854;48.072;16.286;2023-02-28T11:11:21;4.40;48.50
11597;DHT22;5854;48.072;16.286;2023-02-28T11:13:53;4.60;48.10
11597;DHT22;5854;48.072;16.286;2023-02-28T11:16:32;4.70;48.10
11597;DHT22;5854;48.072;16.286;2023-02-28T11:19:00;4.70;48.00
11597;DHT22;5854;48.072;16.286;2023-02-28T11:21:31;4.80;48.80
11597;DHT22;5854;48.072;16.286;2023-02-28T11:24:03;4.90;48.30
11597;DHT22;5854;48.072;16.286;2023-02-28T11:26:36;4.90;47.50
11597;DHT22;5854;48.072;16.286;2023-02-28T11:29:19;4.80;46.50
11597;DHT22;5854;48.072;16.286;2023-02-28T11:32:04;4.70;45.30
11597;DHT22;5854;48.072;16.286;2023-02-28T11:34:37;4.90;46.30
11597;DHT22;5854;48.072;16.286;2023-02-28T11:37:11;4.90;46.40
11597;DHT22;5854;48.072;16.286;2023-02-28T11:39:40;4.90;47.30
11597;DHT22;5854;48.072;16.286;2023-02-28T11:42:20;4.90;47.10
11597;DHT22;5854;48.072;16.286;2023-02-28T11:45:11;5.20;47.50
11597;DHT22;5854;48.072;16.286;2023-02-28T11:47:48;5.30;46.60
11597;DHT22;5854;48.072;16.286;2023-02-28T11:50:24;5.40;45.40
11597;DHT22;5854;48.072;16.286;2023-02-28T11:53:10;5.50;45.20
11597;DHT22;5854;48.072;16.286;2023-02-28T11:55:43;5.60;45.00
11597;DHT22;5854;48.072;16.286;2023-02-28T11:58:20;5.70;41.00
11597;DHT22;5854;48.072;16.286;2023-02-28T12:01:21;5.80;43.30
11597;DHT22;5854;48.072;16.286;2023-02-28T12:04:03;5.60;40.20
11597;DHT22;5854;48.072;16.286;2023-02-28T12:06:38;5.50;41.60
11597;DHT22;5854;48.072;16.286;2023-02-28T12:12:26;5.30;44.10
11597;DHT22;5854;48.072;16.286;2023-02-28T12:15:20;5.10;47.40
11597;DHT22;5854;48.072;16.286;2023-02-28T12:18:18;5.50;45.90
11597;DHT22;5854;48.072;16.286;2023-02-28T12:21:01;5.30;45.60
11597;DHT22;5854;48.072;16.286;2023-02-28T12:24:01;5.10;43.30
11597;DHT22;5854;48.072;16.286;2023-02-28T12:26:41;5.00;45.00
11597;DHT22;5854;48.072;16.286;2023-02-28T12:29:14;4.90;44.10
11597;DHT22;5854;48.072;16.286;2023-02-28T12:31:47;4.80;45.90
11597;DHT22;5854;48.072;16.286;2023-02-28T12:34:18;4.80;44.80
11597;DHT22;5854;48.072;16.286;2023-02-28T12:36:49;4.70;46.70
11597;DHT22;5854;48.072;16.286;2023-02-28T12:39:23;4.70;46.60
11597;DHT22;5854;48.072;16.286;2023-02-28T12:41:55;4.60;45.70
11597;DHT22;5854;48.072;16.286;2023-02-28T12:44:32;4.50;46.60
11597;DHT22;5854;48.072;16.286;2023-02-28T12:47:04;4.50;45.30
11597;DHT22;5854;48.072;16.286;2023-02-28T12:49:34;4.50;45.90
11597;DHT22;5854;48.072;16.286;2023-02-28T12:52:06;4.50;47.10
11597;DHT22;5854;48.072;16.286;2023-02-28T12:54:42;4.50;45.60
11597;DHT22;5854;48.072;16.286;2023-02-28T12:57:15;4.50;47.50
11597;DHT22;5854;48.072;16.286;2023-02-28T12:59:51;4.40;48.30
11597;DHT22;5854;48.072;16.286;2023-02-28T13:06:10;4.30;46.30
11597;DHT22;5854;48.072;16.286;2023-02-28T13:09:04;4.40;47.80
11597;DHT22;5854;48.072;16.286;2023-02-28T13:11:43;4.30;46.00
11597;DHT22;5854;48.072;16.286;2023-02-28T13:14:23;4.40;46.90
11597;DHT22;5854;48.072;16.286;2023-02-28T13:17:01;4.40;47.80
11597;DHT22;5854;48.072;16.286;2023-02-28T13:19:32;4.50;47.90
11597;DHT22;5854;48.072;16.286;2023-02-28T13:22:01;4.60;48.70
11597;DHT22;5854;48.072;16.286;2023-02-28T13:24:42;4.50;48.10
11597;DHT22;5854;48.072;16.286;2023-02-28T13:33:29;4.70;47.10
11597;DHT22;5854;48.072;16.286;2023-02-28T13:36:22;4.70;46.60
11597;DHT22;5854;48.072;16.286;2023-02-28T13:38:53;4.80;45.10
11597;DHT22;5854;48.072;16.286;2023-02-28T13:41:46;4.80;44.30
11597;DHT22;5854;48.072;16.286;2023-02-28T13:44:16;4.70;45.10
11597;DHT22;5854;48.072;16.286;2023-02-28T13:47:22;4.70;46.00
11597;DHT22;5854;48.072;16.286;2023-02-28T13:49:51;4.70;47.70
11597;DHT22;5854;48.072;16.286;2023-02-28T13:52:22;4.70;44.00
11597;DHT22;5854;48.072;16.286;2023-02-28T13:55:06;4.70;44.20
11597;DHT22;5854;48.072;16.286;2023-02-28T14:01:02;5.00;45.30
11597;DHT22;5854;48.072;16.286;2023-02-28T14:04:06;5.00;48.40
11597;DHT22;5854;48.072;16.286;2023-02-28T14:06:47;5.00;44.10
11597;DHT22;5854;48.072;16.286;2023-02-28T14:09:21;5.30;51.50
11597;DHT22;5854;48.072;16.286;2023-02-28T14:11:50;5.40;44.60
11597;DHT22;5854;48.072;16.286;2023-02-28T14:14:56;5.10;42.80
11597;DHT22;5854;48.072;16.286;2023-02-28T14:17:24;4.90;43.00
11597;DHT22;5854;48.072;16.286;2023-02-28T14:19:52;4.70;45.70
11597;DHT22;5854;48.072;16.286;2023-02-28T14:22:40;4.80;46.80
11597;DHT22;5854;48.072;16.286;2023-02-28T14:25:21;4.70;44.10
11597;DHT22;5854;48.072;16.286;2023-02-28T14:27:56;4.70;44.60
11597;DHT22;5854;48.072;16.286;2023-02-28T14:30:52;4.50;43.80
11597;DHT22;5854;48.072;16.286;2023-02-28T14:33:40;4.50;45.60
11597;DHT22;5854;48.072;16.286;2023-02-28T14:36:17;4.50;48.80
11597;DHT22;5854;48.072;16.286;2023-02-28T14:38:48;4.50;46.40
11597;DHT22;5854;48.072;16.286;2023-02-28T14:41:28;4.50;45.70
11597;DHT22;5854;48.072;16.286;2023-02-28T14:43:58;4.40;45.60
11597;DHT22;5854;48.072;16.286;2023-02-28T14:46:33;4.40;47.00
11597;DHT22;5854;48.072;16.286;2023-02-28T14:49:04;4.40;47.80
11597;DHT22;5854;48.072;16.286;2023-02-28T14:51:32;4.40;46.40
11597;DHT22;5854;48.072;16.286;2023-02-28T14:54:01;4.40;46.40
11597;DHT22;5854;48.072;16.286;2023-02-28T14:56:34;4.40;45.80
11597;DHT22;5854;48.072;16.286;2023-02-28T14:59:03;4.30;47.30
11597;DHT22;5854;48.072;16.286;2023-02-28T15:01:32;4.30;47.20
11597;DHT22;5854;48.072;16.286;2023-02-28T15:04:02;4.30;47.10
11597;DHT22;5854;48.072;16.286;2023-02-28T15:06:32;4.30;45.60
11597;DHT22;5854;48.072;16.286;2023-02-28T15:09:10;4.30;47.00
11597;DHT22;5854;48.072;16.286;2023-02-28T15:11:47;4.30;48.70
11597;DHT22;5854;48.072;16.286;2023-02-28T15:14:18;4.30;46.30
11597;DHT22;5854;48.072;16.286;2023-02-28T15:16:51;4.20;47.90
11597;DHT22;5854;48.072;16.286;2023-02-28T15:19:25;4.20;46.70
11597;DHT22;5854;48.072;16.286;2023-02-28T15:21:56;4.20;47.40
11597;DHT22;5854;48.072;16.286;2023-02-28T15:24:32;4.20;45.10
11597;DHT22;5854;48.072;16.286;2023-02-28T15:27:04;4.20;48.20
11597;DHT22;5854;48.072;16.286;2023-02-28T15:29:44;4.20;45.90
11597;DHT22;5854;48.072;16.286;2023-02-28T15:32:28;4.30;47.80
11597;DHT22;5854;48.072;16.286;2023-02-28T15:34:57;4.20;46.70
11597;DHT22;5854;48.072;16.286;2023-02-28T15:37:33;4.20;44.50
11597;DHT22;5854;48.072;16.286;2023-02-28T15:40:15;4.20;48.80
11597;DHT22;5854;48.072;16.286;2023-02-28T15:42:57;4.20;47.00
11597;DHT22;5854;48.072;16.286;2023-02-28T15:45:34;4.10;44.70
11597;DHT22;5854;48.072;16.286;2023-02-28T15:48:09;4.10;46.70
11597;DHT22;5854;48.072;16.286;2023-02-28T15:50:46;4.10;46.80
11597;DHT22;5854;48.072;16.286;2023-02-28T15:53:16;4.20;46.30
11597;DHT22;5854;48.072;16.286;2023-02-28T15:55:45;4.20;51.50
11597;DHT22;5854;48.072;16.286;2023-02-28T15:58:19;4.10;48.30
11597;DHT22;5854;48.072;16.286;2023-02-28T16:01:00;4.10;50.00
11597;DHT22;5854;48.072;16.286;2023-02-28T16:03:41;4.10;53.00
11597;DHT22;5854;48.072;16.286;2023-02-28T16:06:33;4.10;50.80
11597;DHT22;5854;48.072;16.286;2023-02-28T16:09:03;4.10;50.90
11597;DHT22;5854;48.072;16.286;2023-02-28T16:11:34;4.20;55.20
11597;DHT22;5854;48.072;16.286;2023-02-28T16:14:13;4.20;54.00
11597;DHT22;5854;48.072;16.286;2023-02-28T16:16:43;4.20;54.80
11597;DHT22;5854;48.072;16.286;2023-02-28T16:19:16;4.10;54.80
11597;DHT22;5854;48.072;16.286;2023-02-28T16:21:43;3.90;49.90
11597;DHT22;5854;48.072;16.286;2023-02-28T16:24:13;3.80;52.70
11597;DHT22;5854;48.072;16.286;2023-02-28T16:26:44;3.90;54.00
11597;DHT22;5854;48.072;16.286;2023-02-28T16:29:23;4.00;54.40
11597;DHT22;5854;48.072;16.286;2023-02-28T16:31:52;4.10;54.40
11597;DHT22;5854;48.072;16.286;2023-02-28T16:34:21;4.20;52.90
11597;DHT22;5854;48.072;16.286;2023-02-28T16:36:49;4.30;53.20
11597;DHT22;5854;48.072;16.286;2023-02-28T16:39:16;4.40;53.80
11597;DHT22;5854;48.072;16.286;2023-02-28T16:41:48;4.40;53.90
11597;DHT22;5854;48.072;16.286;2023-02-28T16:44:24;4.40;52.50